createdAt,value
2022-10-06T08:12:09.156Z,99979.25
2022-10-06T08:13:42.478Z,99976.53
2022-10-06T08:15:14.048Z,99957.34
2022-10-06T08:16:45.596Z,99942.69
2022-10-06T08:18:44.319Z,99938.63
2022-10-06T08:20:12.633Z,99941.81
2022-10-06T08:21:44.201Z,99943.09
2022-10-06T08:23:15.761Z,99945.00
2022-10-06T08:25:04.786Z,99937.81
2022-10-06T08:26:37.619Z,99935.91
2022-10-06T08:28:10.234Z,99942.69
2022-10-06T08:29:41.831Z,99938.81
2022-10-06T08:31:13.617Z,99933.28
2022-10-06T08:32:45.196Z,99936.97
2022-10-06T08:34:16.762Z,99948.84
2022-10-06T08:35:48.329Z,99948.22
2022-10-06T08:37:20.588Z,99946.13
2022-10-06T08:38:52.420Z,99946.00
2022-10-06T08:40:24.060Z,99963.03
2022-10-06T08:41:55.597Z,99946.13
2022-10-06T08:43:27.158Z,99954.41
2022-10-06T08:45:24.823Z,99948.72
2022-10-06T08:47:17.342Z,99945.34
2022-10-06T08:48:49.204Z,99945.22
2022-10-06T08:50:20.757Z,99949.72
2022-10-06T08:52:21.694Z,99949.38
2022-10-06T08:54:02.541Z,99940.94
2022-10-06T08:55:47.637Z,99945.66
2022-10-06T08:57:20.494Z,99948.13
2022-10-06T08:58:53.947Z,99944.56
2022-10-06T09:00:25.497Z,99948.66
2022-10-06T09:01:57.152Z,99953.88
2022-10-06T09:03:29.147Z,99942.66
2022-10-06T09:05:02.926Z,99945.41
2022-10-06T09:07:11.350Z,99954.88
2022-10-06T09:08:54.275Z,99944.03
2022-10-06T09:10:46.007Z,99954.84
2022-10-06T09:12:19.744Z,99955.34
2022-10-06T09:13:54.993Z,99959.88
2022-10-06T09:16:00.237Z,99966.91
2022-10-06T09:17:42.256Z,99964.34
2022-10-06T09:19:31.311Z,99965.84
2022-10-06T09:21:09.682Z,99962.63
2022-10-06T09:22:41.256Z,99961.34
2022-10-06T09:24:15.861Z,99961.63
2022-10-06T09:25:47.455Z,99956.53
2022-10-06T09:27:45.786Z,99964.31
2022-10-06T09:29:17.399Z,99962.63
2022-10-06T09:30:53.148Z,99963.38
2022-10-06T09:32:27.326Z,99970.84
2022-10-06T09:34:10.987Z,99959.19
2022-10-06T09:36:01.711Z,99964.44
2022-10-06T09:37:55.944Z,99965.38
2022-10-06T09:39:29.700Z,99960.56
2022-10-06T09:41:01.253Z,99965.03
2022-10-06T09:42:32.809Z,99976.31
2022-10-06T09:44:05.341Z,99974.47
2022-10-06T09:45:36.910Z,99972.78
2022-10-06T09:47:30.365Z,99970.59
2022-10-06T09:49:21.811Z,99967.47
2022-10-06T09:51:12.603Z,99971.44
2022-10-06T09:52:59.873Z,99971.75
2022-10-06T09:54:31.536Z,99981.47
2022-10-06T09:56:03.196Z,99984.91
2022-10-06T09:57:34.763Z,99975.66
2022-10-06T09:59:06.373Z,99985.22
2022-10-06T10:00:41.712Z,100000.09
2022-10-06T10:02:33.451Z,99985.22
2022-10-06T10:04:19.956Z,99979.72
2022-10-06T10:05:53.679Z,99987.00
2022-10-06T10:07:26.624Z,99995.91
2022-10-06T10:09:19.056Z,99997.72
2022-10-06T10:11:08.386Z,99997.19
2022-10-06T10:12:48.770Z,99993.41
2022-10-06T10:14:20.356Z,99998.66
2022-10-06T10:15:58.973Z,99999.16
2022-10-06T10:17:35.068Z,99998.59
2022-10-06T10:19:06.641Z,100000.41
2022-10-06T10:20:53.405Z,100001.53
2022-10-06T10:22:37.897Z,99997.44
2022-10-06T10:24:16.349Z,99997.06
2022-10-06T10:25:56.604Z,99987.00
2022-10-06T10:27:38.739Z,100010.88
2022-10-06T10:29:22.132Z,99995.03
2022-10-06T10:31:15.572Z,100001.47
2022-10-06T10:33:12.410Z,100000.06
2022-10-06T10:34:59.292Z,100009.50
2022-10-06T10:36:44.325Z,100010.25
2022-10-06T10:38:22.430Z,100004.69
2022-10-06T10:40:19.893Z,99997.03
2022-10-06T10:41:51.594Z,100008.66
2022-10-06T10:43:25.872Z,100003.81
2022-10-06T10:45:00.834Z,100000.56
2022-10-06T10:46:34.572Z,100003.31
2022-10-06T10:48:18.800Z,100001.13
2022-10-06T10:49:56.330Z,99995.34
2022-10-06T10:51:35.016Z,100009.28
2022-10-06T10:53:13.541Z,99989.66
2022-10-06T10:55:03.717Z,99996.88
2022-10-06T10:56:35.435Z,100000.44
2022-10-06T10:58:38.879Z,99993.16
2022-10-06T11:00:17.969Z,99992.69
2022-10-06T11:01:57.972Z,99993.03
2022-10-06T11:03:29.643Z,99995.75
2022-10-06T11:05:12.846Z,99997.88
2022-10-06T11:07:03.081Z,99991.34
2022-10-06T11:08:52.569Z,99984.66
2022-10-06T11:10:28.292Z,99982.59
2022-10-06T11:12:31.004Z,99976.47
2022-10-06T11:14:02.581Z,99994.66
2022-10-06T11:15:46.699Z,99987.97
2022-10-06T11:17:43.614Z,99985.47
2022-10-06T11:19:39.522Z,99982.97
2022-10-06T11:21:34.138Z,99980.16
2022-10-06T11:23:16.483Z,99983.88
2022-10-06T11:24:58.008Z,99984.16
2022-10-06T11:26:48.005Z,99989.22
2022-10-06T11:28:53.713Z,99978.16
2022-10-06T11:30:25.257Z,99985.44
2022-10-06T11:31:59.590Z,99985.44
2022-10-06T11:33:51.257Z,99989.16
2022-10-06T11:35:24.301Z,99988.72
2022-10-06T11:37:21.142Z,99990.53
2022-10-06T11:38:57.677Z,99989.50
2022-10-06T11:40:41.075Z,99992.34
2022-10-06T11:42:38.901Z,99998.19
2022-10-06T11:44:28.492Z,99982.06
2022-10-06T11:46:29.750Z,99988.19
2022-10-06T11:48:21.095Z,99987.94
2022-10-06T11:49:53.720Z,99990.59
2022-10-06T11:51:25.187Z,99989.53
2022-10-06T11:52:56.780Z,99992.53
2022-10-06T11:54:35.927Z,99977.91
2022-10-06T11:56:19.443Z,99981.03
2022-10-06T12:00:05.201Z,99987.13
2022-10-06T12:01:42.230Z,99985.38
2022-10-06T12:03:29.015Z,99979.13
2022-10-06T12:05:28.681Z,99987.94
2022-10-06T12:07:01.579Z,99983.50
2022-10-06T12:08:40.141Z,99976.31
2022-10-06T12:10:29.703Z,99982.00
2022-10-06T12:12:03.107Z,99975.28
2022-10-06T12:18:01.427Z,99980.50
2022-10-06T12:20:03.410Z,99972.53
2022-10-06T12:22:11.028Z,99979.88
2022-10-06T12:23:45.374Z,99985.25
2022-10-06T12:25:33.920Z,99977.19
2022-10-06T12:27:22.069Z,99967.63
2022-10-06T12:28:57.674Z,99977.50
2022-10-06T12:30:50.471Z,99979.31
2022-10-06T12:32:42.225Z,99962.03
2022-10-06T12:34:51.429Z,99967.69
2022-10-06T12:36:30.256Z,99975.44
2022-10-06T12:38:02.898Z,99967.53
2022-10-06T12:39:34.458Z,99961.31
2022-10-06T12:41:14.007Z,99964.91
2022-10-06T12:42:45.595Z,99969.53
2022-10-06T12:44:47.011Z,99961.16
2022-10-06T12:46:18.571Z,99958.50
2022-10-06T12:47:50.219Z,99965.47
2022-10-06T12:49:46.420Z,99956.25
2022-10-06T12:51:28.679Z,99965.19
2022-10-06T12:53:03.663Z,99962.50
2022-10-06T12:54:37.350Z,99960.09
2022-10-06T12:56:17.811Z,99963.09
2022-10-06T12:57:50.177Z,99957.88
2022-10-06T12:59:29.428Z,99963.72
2022-10-06T13:01:11.855Z,99963.09
2022-10-06T13:02:43.675Z,99952.84
2022-10-06T13:04:33.716Z,99958.22
2022-10-06T13:06:07.063Z,99959.25
2022-10-06T13:07:57.668Z,99966.25
2022-10-06T13:09:29.318Z,99961.34
2022-10-06T13:11:11.735Z,99945.34
2022-10-06T13:12:44.570Z,99954.91
2022-10-06T13:14:16.138Z,99952.97
2022-10-06T13:15:47.686Z,99952.81
2022-10-06T13:17:19.263Z,99951.03
2022-10-06T13:18:54.922Z,99952.97
2022-10-06T13:20:48.177Z,99960.16
2022-10-06T13:22:19.781Z,99960.28
2022-10-06T13:23:51.326Z,99961.63
2022-10-06T13:25:22.893Z,99955.19
2022-10-06T13:26:54.481Z,99954.88
2022-10-06T13:28:44.074Z,99949.50
2022-10-06T13:30:20.041Z,99948.00
2022-10-06T13:31:53.391Z,99948.59
2022-10-06T13:33:27.345Z,99942.91
2022-10-06T13:34:59.159Z,99935.31
2022-10-06T13:36:35.372Z,99943.38
2022-10-06T13:38:07.014Z,99943.66
2022-10-06T13:39:39.091Z,99943.50
2022-10-06T13:41:13.361Z,99948.72
2022-10-06T13:42:46.337Z,99955.63
2022-10-06T13:44:27.414Z,99948.59
2022-10-06T13:45:59.179Z,99950.06
2022-10-06T13:47:30.815Z,99941.59
2022-10-06T13:49:04.549Z,99948.00
2022-10-06T13:50:36.106Z,99943.38
2022-10-06T13:52:15.723Z,99945.44
2022-10-06T13:53:47.302Z,99946.50
2022-10-06T13:55:26.520Z,99955.44
2022-10-06T13:56:58.239Z,99954.41
2022-10-06T13:58:29.781Z,99946.50
2022-10-06T14:00:04.354Z,99955.19
2022-10-06T14:01:37.161Z,99952.38
2022-10-06T14:03:09.824Z,99957.16
2022-10-06T14:04:41.443Z,99951.66
2022-10-06T14:06:18.178Z,99964.91
2022-10-06T14:07:50.136Z,99968.19
2022-10-06T14:09:26.359Z,99968.06
2022-10-06T14:10:59.521Z,99961.34
2022-10-06T14:12:31.127Z,99965.38
2022-10-06T14:14:03.856Z,99964.78
2022-10-06T14:15:58.819Z,99968.06
2022-10-06T14:17:30.388Z,99979.69
2022-10-06T14:19:03.509Z,99969.09
2022-10-06T14:20:42.203Z,99972.25
2022-10-06T14:22:33.547Z,99969.25
2022-10-06T14:24:09.879Z,99967.78
2022-10-06T14:25:41.642Z,99971.34
2022-10-06T14:27:13.201Z,99973.72
2022-10-06T14:28:49.183Z,99971.03
2022-10-06T14:30:20.750Z,99967.19
2022-10-06T14:31:52.420Z,99967.19
2022-10-06T14:33:24.955Z,99973.59
2022-10-06T14:34:56.497Z,99966.28
2022-10-06T14:36:28.680Z,99972.41
2022-10-06T14:38:00.215Z,99970.91
2022-10-06T14:39:31.765Z,99971.81
2022-10-06T14:41:03.321Z,99971.91
2022-10-06T14:42:34.938Z,99975.78
2022-10-06T14:44:07.719Z,99974.75
2022-10-06T14:45:42.816Z,99973.25
2022-10-06T14:47:14.356Z,99968.63
2022-10-06T14:48:45.934Z,99973.72
2022-10-06T14:50:17.492Z,99972.19
2022-10-06T14:51:49.342Z,99980.25
2022-10-06T14:53:20.889Z,99981.91
2022-10-06T14:54:52.600Z,99978.19
2022-10-06T14:56:28.340Z,99983.97
2022-10-06T14:57:59.927Z,99981.75
2022-10-06T14:59:31.588Z,99975.63
2022-10-06T15:01:04.910Z,99982.19
2022-10-06T15:02:36.590Z,99978.75
2022-10-06T15:04:18.938Z,99975.78
2022-10-06T15:05:50.488Z,99986.53
2022-10-06T15:07:22.029Z,99986.53
2022-10-06T15:08:57.588Z,99980.09
2022-10-06T15:10:29.176Z,99982.31
2022-10-06T15:12:00.785Z,99977.84
2022-10-06T15:13:33.724Z,99986.53
2022-10-06T15:15:05.767Z,99983.09
2022-10-06T15:16:37.691Z,99986.53
2022-10-06T15:18:09.260Z,99971.88
2022-10-06T15:19:40.815Z,99989.34
2022-10-06T15:21:12.380Z,99990.09
2022-10-06T15:22:44.280Z,99986.66
2022-10-06T15:24:17.515Z,99984.72
2022-10-06T15:25:52.619Z,99980.81
2022-10-06T15:27:25.237Z,99983.84
2022-10-06T15:28:57.184Z,99992.63
2022-10-06T15:30:28.755Z,99991.13
2022-10-06T15:32:01.432Z,99993.06
2022-10-06T15:33:32.982Z,99992.19
2022-10-06T15:35:04.756Z,100000.97
2022-10-06T15:36:37.430Z,99993.22
2022-10-06T15:38:08.993Z,99995.31
2022-10-06T15:39:40.587Z,99988.59
2022-10-06T15:41:12.279Z,99990.38
2022-10-06T15:42:43.825Z,99991.75
2022-10-06T15:44:15.857Z,99995.91
2022-10-06T15:45:52.722Z,99986.38
2022-10-06T15:47:24.331Z,99991.13
2022-10-06T15:48:57.460Z,99989.19
2022-10-06T15:50:29.113Z,99981.88
2022-10-06T15:52:01.518Z,99987.69
2022-10-06T15:53:33.221Z,99996.03
2022-10-06T15:55:05.132Z,99991.28
2022-10-06T15:56:36.697Z,100000.97
2022-10-06T15:58:08.286Z,100002.16
2022-10-06T15:59:39.844Z,99998.16
2022-10-06T16:01:29.978Z,100000.09
2022-10-06T16:03:01.601Z,100013.19
2022-10-06T16:04:33.988Z,100006.78
2022-10-06T16:06:05.756Z,100006.16
2022-10-06T16:07:37.367Z,100010.47
2022-10-06T16:09:12.027Z,100020.19
2022-10-06T16:10:49.442Z,100019.84
2022-10-06T16:12:22.252Z,100025.22
2022-10-06T16:13:53.826Z,100023.00
2022-10-06T16:15:25.430Z,100025.38
2022-10-06T16:16:58.979Z,100026.56
2022-10-06T16:18:31.489Z,100026.69
2022-10-06T16:20:03.115Z,100025.94
2022-10-06T16:21:34.700Z,100024.88
2022-10-06T16:23:06.279Z,100033.34
2022-10-06T16:24:38.021Z,100031.56
2022-10-06T16:26:09.574Z,100032.44
2022-10-06T16:27:41.151Z,100041.69
2022-10-06T16:29:16.087Z,100039.44
2022-10-06T16:30:54.622Z,100047.16
2022-10-06T16:32:26.184Z,100054.03
2022-10-06T16:33:57.777Z,100049.44
2022-10-06T16:35:29.339Z,100054.78
2022-10-06T16:37:00.898Z,100048.97
2022-10-06T16:38:32.445Z,100058.22
2022-10-06T16:40:04.309Z,100051.34
2022-10-06T16:41:35.895Z,100050.31
2022-10-06T16:43:07.459Z,100057.31
2022-10-06T16:44:39.011Z,100055.81
2022-10-06T16:46:17.911Z,100067.72
2022-10-06T16:47:49.464Z,100064.28
2022-10-06T16:49:21.033Z,100066.97
2022-10-06T16:51:05.294Z,100068.91
2022-10-06T16:52:37.055Z,100074.72
2022-10-06T16:54:13.056Z,100076.34
2022-10-06T16:55:45.087Z,100076.03
2022-10-06T16:57:16.676Z,100079.88
2022-10-06T16:58:49.684Z,100077.66
2022-10-06T17:00:21.299Z,100078.06
2022-10-06T17:01:52.863Z,100070.03
2022-10-06T17:03:24.480Z,100065.41
2022-10-06T17:04:56.028Z,100071.25
2022-10-06T17:06:27.602Z,100074.34
2022-10-06T17:07:59.331Z,100081.34
2022-10-06T17:09:30.916Z,100078.78
2022-10-06T17:11:22.729Z,100081.00
2022-10-06T17:12:54.327Z,100087.13
2022-10-06T17:14:26.452Z,100082.22
2022-10-06T17:16:02.192Z,100085.66
2022-10-06T17:17:33.850Z,100080.28
2022-10-06T17:19:05.436Z,100091.03
2022-10-06T17:20:37.336Z,100089.06
2022-10-06T17:22:08.897Z,100091.31
2022-10-06T17:23:40.479Z,100077.38
2022-10-06T17:25:12.039Z,100093.56
2022-10-06T17:26:43.887Z,100098.94
2022-10-06T17:28:15.548Z,100092.06
2022-10-06T17:29:47.169Z,100090.13
2022-10-06T17:31:23.251Z,100092.50
2022-10-06T17:32:54.798Z,100091.75
2022-10-06T17:34:30.718Z,100094.88
2022-10-06T17:36:08.536Z,100095.31
2022-10-06T17:37:40.123Z,100088.00
2022-10-06T17:39:12.098Z,100098.75
2022-10-06T17:40:44.319Z,100097.22
2022-10-06T17:42:16.002Z,100091.16
2022-10-06T17:43:49.130Z,100097.66
2022-10-06T17:45:21.514Z,100097.66
2022-10-06T17:46:55.112Z,100096.16
2022-10-06T17:48:26.658Z,100097.34
2022-10-06T17:49:58.642Z,100095.41
2022-10-06T17:51:30.282Z,100100.03
2022-10-06T17:53:01.899Z,100096.59
2022-10-06T17:54:33.852Z,100099.28
2022-10-06T17:56:09.578Z,100090.16
2022-10-06T17:57:41.255Z,100096.59
2022-10-06T17:59:14.646Z,100100.34
2022-10-06T18:00:46.246Z,100090.78
2022-10-06T18:02:18.657Z,100097.97
2022-10-06T18:03:52.050Z,100094.13
2022-10-06T18:05:24.204Z,100092.94
2022-10-06T18:06:56.182Z,100101.00
2022-10-06T18:08:27.804Z,100090.28
2022-10-06T18:10:00.505Z,100095.63
2022-10-06T18:11:32.612Z,100092.94
2022-10-06T18:13:04.572Z,100091.75
2022-10-06T18:14:36.281Z,100082.97
2022-10-06T18:16:18.677Z,100093.25
2022-10-06T18:17:50.589Z,100091.75
2022-10-06T18:19:31.960Z,100091.03
2022-10-06T18:21:03.769Z,100090.41
2022-10-06T18:22:35.599Z,100094.22
2022-10-06T18:24:10.125Z,100089.31
2022-10-06T18:25:42.061Z,100088.97
2022-10-06T18:27:13.768Z,100083.31
2022-10-06T18:28:47.003Z,100081.81
2022-10-06T18:30:18.914Z,100085.25
2022-10-06T18:31:51.496Z,100089.84
2022-10-06T18:37:08.117Z,100092.53
2022-10-06T18:38:41.824Z,100102.09
2022-10-06T18:40:13.588Z,100104.31
2022-10-06T18:41:45.485Z,100097.78
2022-10-06T18:43:17.416Z,100101.50
2022-10-06T18:44:49.522Z,100104.19
2022-10-06T18:46:21.333Z,100107.63
2022-10-06T18:47:52.967Z,100104.56
2022-10-06T18:49:24.642Z,100104.56
2022-10-06T18:51:02.459Z,100107.25
2022-10-06T18:52:34.177Z,100104.94
2022-10-06T18:54:07.308Z,100107.31
2022-10-06T18:55:39.060Z,100105.41
2022-10-06T18:57:11.129Z,100107.00
2022-10-06T18:58:43.701Z,100104.44
2022-10-06T19:00:16.339Z,100099.84
2022-10-06T19:01:49.035Z,100100.59
2022-10-06T19:03:21.434Z,100104.44
2022-10-06T19:04:53.814Z,100102.22
2022-10-06T19:06:27.622Z,100106.94
2022-10-06T19:07:59.933Z,100107.56
2022-10-06T19:09:32.386Z,100107.56
2022-10-06T19:11:05.372Z,100100.41
2022-10-06T19:12:37.314Z,100106.81
2022-10-06T19:14:09.471Z,100108.00
2022-10-06T19:15:50.657Z,100101.88
2022-10-06T19:17:22.875Z,100104.56
2022-10-06T19:18:54.661Z,100102.34
2022-10-06T19:20:26.938Z,100108.44
2022-10-06T19:22:00.730Z,100107.69
2022-10-06T19:23:33.975Z,100106.19
2022-10-06T19:25:06.250Z,100103.50
2022-10-06T19:26:42.455Z,100107.38
2022-10-06T19:28:18.123Z,100103.22
2022-10-06T19:29:51.798Z,100103.22
2022-10-06T19:31:25.130Z,100107.06
2022-10-06T19:32:57.068Z,100107.06
2022-10-06T19:34:29.062Z,100104.81
2022-10-06T19:36:01.303Z,100107.50
2022-10-06T19:37:33.327Z,100111.38
2022-10-06T19:39:08.151Z,100111.38
2022-10-06T19:40:40.210Z,100113.31
2022-10-06T19:42:12.928Z,100113.31
2022-10-06T19:43:45.239Z,100119.41
2022-10-06T19:45:17.749Z,100116.75
2022-10-06T19:46:49.690Z,100122.09
2022-10-06T19:48:21.529Z,100120.91
2022-10-06T19:49:54.560Z,100124.78
2022-10-06T19:51:28.811Z,100121.66
2022-10-06T19:53:01.019Z,100126.59
2022-10-06T19:54:33.148Z,100130.75
2022-10-06T19:56:05.182Z,100133.31
2022-10-06T19:57:36.977Z,100129.03
2022-10-06T19:59:09.954Z,100127.53
2022-10-06T20:00:41.529Z,100129.03
2022-10-06T20:02:13.105Z,100128.28
2022-10-06T20:03:44.918Z,100122.16
2022-10-06T20:05:16.658Z,100130.63
2022-10-06T20:06:48.291Z,100129.91
2022-10-06T20:08:19.818Z,100134.50
2022-10-06T20:09:51.386Z,100123.91
2022-10-06T20:11:22.973Z,100129.69
2022-10-06T20:12:54.545Z,100129.38
2022-10-06T20:14:26.237Z,100127.13
2022-10-06T20:16:00.705Z,100129.50
2022-10-06T20:17:32.266Z,100130.69
2022-10-06T20:19:03.948Z,100130.38
2022-10-06T20:20:35.527Z,100129.28
2022-10-06T20:22:07.071Z,100133.19
2022-10-06T20:23:38.639Z,100122.81
2022-10-06T20:25:10.246Z,100138.66
2022-10-06T20:26:42.373Z,100134.47
2022-10-06T20:28:13.951Z,100140.69
2022-10-06T20:29:45.582Z,100135.00
2022-10-06T20:31:24.772Z,100141.56
2022-10-06T20:32:56.520Z,100142.44
2022-10-06T20:34:28.712Z,100137.88
2022-10-06T20:36:00.823Z,100146.72
2022-10-06T20:37:32.358Z,100147.88
2022-10-06T20:39:07.418Z,100141.44
2022-10-06T20:40:42.624Z,100142.63
2022-10-06T20:42:15.495Z,100146.91
2022-10-06T20:43:47.206Z,100143.47
2022-10-06T20:45:18.765Z,100145.84
2022-10-06T20:46:50.685Z,100146.28
2022-10-06T20:48:22.250Z,100147.03
2022-10-06T20:49:54.353Z,100147.47
2022-10-06T20:51:27.856Z,100148.66
2022-10-06T20:52:59.456Z,100144.47
2022-10-06T20:54:31.081Z,100141.47
2022-10-06T20:56:02.642Z,100134.59
2022-10-06T20:57:34.211Z,100143.84
2022-10-06T20:59:05.911Z,100143.09
2022-10-06T21:00:37.574Z,100135.47
2022-10-06T21:02:09.458Z,100132.03
2022-10-06T21:03:45.402Z,100137.50
2022-10-06T21:05:17.080Z,100142.88
2022-10-06T21:06:48.813Z,100132.16
2022-10-06T21:08:20.480Z,100128.00
2022-10-06T21:09:52.459Z,100131.84
2022-10-06T21:11:24.655Z,100133.34
2022-10-06T21:12:56.305Z,100127.66
2022-10-06T21:14:27.951Z,100129.59
2022-10-06T21:15:59.785Z,100128.06
2022-10-06T21:17:31.469Z,100135.81
2022-10-06T21:19:04.075Z,100130.44
2022-10-06T21:20:35.752Z,100132.38
2022-10-06T21:22:07.482Z,100129.38
2022-10-06T21:23:40.606Z,100119.44
2022-10-06T21:25:12.238Z,100121.34
2022-10-06T21:26:43.899Z,100119.84
2022-10-06T21:28:15.609Z,100124.44
2022-10-06T21:29:47.291Z,100125.66
2022-10-06T21:31:20.696Z,100127.56
2022-10-06T21:32:52.399Z,100121.47
2022-10-06T21:34:24.354Z,100116.09
2022-10-06T21:36:02.710Z,100125.31
2022-10-06T21:37:34.606Z,100119.22
2022-10-06T21:39:06.424Z,100125.72
2022-10-06T21:40:38.131Z,100120.38
2022-10-06T21:42:09.786Z,100123.06
2022-10-06T21:43:41.449Z,100115.03
2022-10-06T21:45:15.993Z,100113.53
2022-10-06T21:46:49.281Z,100115.47
2022-10-06T21:48:21.035Z,100117.38
2022-10-06T21:49:52.759Z,100111.72
2022-10-06T21:51:24.993Z,100118.56
2022-10-06T21:52:56.664Z,100117.09
2022-10-06T21:54:28.326Z,100116.34
2022-10-06T21:55:59.965Z,100112.91
2022-10-06T21:57:34.696Z,100116.75
2022-10-06T21:59:06.765Z,100112.13
2022-10-06T22:00:38.842Z,100122.09
2022-10-06T22:02:10.568Z,100109.88
2022-10-06T22:03:42.280Z,100115.66
2022-10-06T22:05:13.966Z,100116.41
2022-10-06T22:06:48.473Z,100111.06
2022-10-06T22:08:20.128Z,100115.66
2022-10-06T22:09:51.769Z,100103.44
2022-10-06T22:11:25.931Z,100112.22
2022-10-06T22:12:57.607Z,100110.72
2022-10-06T22:14:29.305Z,100113.41
2022-10-06T22:16:02.145Z,100113.41
2022-10-06T22:17:33.829Z,100109.25
2022-10-06T22:19:06.802Z,100117.28
2022-10-06T22:20:38.459Z,100097.78
2022-10-06T22:22:10.124Z,100113.09
2022-10-06T22:23:42.349Z,100108.47
2022-10-06T22:25:14.279Z,100104.31
2022-10-06T22:26:45.994Z,100110.06
2022-10-06T22:28:17.630Z,100108.16
2022-10-06T22:29:49.311Z,100108.91
2022-10-06T22:31:25.716Z,100103.53
2022-10-06T22:32:57.782Z,100106.22
2022-10-06T22:34:29.430Z,100108.16
2022-10-06T22:36:01.214Z,100106.66
2022-10-06T22:37:32.926Z,100106.66
2022-10-06T22:39:04.621Z,100104.41
2022-10-06T22:40:36.329Z,100101.31
2022-10-06T22:42:07.985Z,100107.09
2022-10-06T22:43:39.715Z,100109.75
2022-10-06T22:45:11.381Z,100113.94
2022-10-06T22:46:43.121Z,100104.41
2022-10-06T22:48:14.891Z,100103.66
2022-10-06T22:49:46.537Z,100106.34
2022-10-06T22:51:18.207Z,100096.38
2022-10-06T22:52:49.852Z,100096.06
2022-10-06T22:54:21.586Z,100104.81
2022-10-06T22:55:53.246Z,100110.19
2022-10-06T22:57:24.902Z,100114.81
2022-10-06T22:58:56.557Z,100108.69
2022-10-06T23:00:28.254Z,100109.47
2022-10-06T23:01:59.939Z,100101.09
2022-10-06T23:03:31.634Z,100102.59
2022-10-06T23:05:03.419Z,100102.59
2022-10-06T23:06:35.083Z,100101.09
2022-10-06T23:08:07.555Z,100114.47
2022-10-06T23:09:39.199Z,100109.13
2022-10-06T23:11:16.752Z,100103.88
2022-10-06T23:12:48.406Z,100112.97
2022-10-06T23:14:20.135Z,100096.91
2022-10-06T23:15:51.880Z,100104.94
2022-10-06T23:17:23.550Z,100101.53
2022-10-06T23:18:55.266Z,100104.22
2022-10-06T23:20:26.923Z,100100.78
2022-10-06T23:21:58.575Z,100106.13
2022-10-06T23:23:30.590Z,100106.13
2022-10-06T23:25:02.240Z,100103.13
2022-10-06T23:26:33.894Z,100099.28
2022-10-06T23:28:05.638Z,100095.84
2022-10-06T23:29:37.314Z,100099.69
2022-10-06T23:31:09.741Z,100097.75
2022-10-06T23:32:41.397Z,100099.69
2022-10-06T23:34:13.041Z,100102.38
2022-10-06T23:35:44.679Z,100101.63
2022-10-06T23:37:16.396Z,100100.44
2022-10-06T23:38:48.066Z,100100.13
2022-10-06T23:40:19.703Z,100100.88
2022-10-06T23:41:51.343Z,100108.91
2022-10-06T23:43:23.034Z,100107.72
2022-10-06T23:44:54.682Z,100105.50
2022-10-06T23:46:26.323Z,100111.59
2022-10-06T23:47:57.970Z,100115.03
2022-10-06T23:49:29.620Z,100106.25
2022-10-06T23:51:01.169Z,100107.41
2022-10-06T23:52:32.835Z,100108.16
2022-10-06T23:54:04.503Z,100099.78
2022-10-06T23:55:36.156Z,100102.06
2022-10-06T23:57:07.807Z,100109.34
2022-10-06T23:58:39.518Z,100108.16
